Time;durP1;ratioP1;P1;durP2;ratioP2;P2;SDS_P1;SDS_P2;PMS_P1;PMS_P2;Temp;Humidity;BMP_temperature;BMP_pressure;BME280_temperature;BME280_humidity;BME280_pressure;Samples;Min_cycle;Max_cycle;Signal;HPM_P1;HPM_P2
2022/12/05 00:01:42;;;;;;;24.37;10.77;;;3.20;97.30;;;;;;4955750;28;20627;-87
2022/12/05 00:04:10;;;;;;;23.77;13.30;;;3.20;97.30;;;;;;4947393;29;20434;-87
2022/12/05 00:06:38;;;;;;;13.43;7.87;;;3.20;97.30;;;;;;4936801;28;20447;-87
2022/12/05 00:09:05;;;;;;;28.67;13.53;;;3.30;97.30;;;;;;4937101;28;20430;-88
2022/12/05 00:11:33;;;;;;;28.87;10.83;;;3.30;97.30;;;;;;4936386;28;20461;-87
2022/12/05 00:14:00;;;;;;;21.60;11.77;;;3.30;97.30;;;;;;4936124;28;20427;-87
2022/12/05 00:16:29;;;;;;;21.43;11.40;;;3.30;97.30;;;;;;4939654;28;21039;-88
2022/12/05 00:18:55;;;;;;;21.37;9.97;;;3.20;97.30;;;;;;4959096;28;20472;-87
2022/12/05 00:21:23;;;;;;;16.97;8.13;;;3.20;97.30;;;;;;4943568;28;20466;-87
2022/12/05 00:23:50;;;;;;;28.97;7.57;;;3.20;97.30;;;;;;4936668;28;21159;-86
2022/12/05 00:26:16;;;;;;;12.37;9.13;;;3.20;97.30;;;;;;4965554;28;20426;-87
2022/12/05 00:28:42;;;;;;;12.13;9.10;;;3.20;97.30;;;;;;4926750;28;20442;-87
2022/12/05 00:31:10;;;;;;;33.77;9.83;;;3.20;97.30;;;;;;4936498;28;20467;-88
2022/12/05 00:33:36;;;;;;;15.97;9.37;;;3.20;97.30;;;;;;4929409;28;20256;-88
2022/12/05 00:36:09;;;;;;;15.67;9.27;;;3.30;97.30;;;;;;4954300;28;20506;-87
2022/12/05 00:38:35;;;;;;;27.33;11.83;;;3.30;97.30;;;;;;4985335;23;20988;-83
2022/12/05 00:41:10;;;;;;;27.87;13.77;;;3.30;97.30;;;;;;5004954;28;20592;-87
2022/12/05 00:43:36;;;;;;;19.13;10.03;;;3.30;97.30;;;;;;5024368;28;20430;-86
2022/12/05 00:46:07;;;;;;;12.20;7.90;;;3.30;97.30;;;;;;5024298;28;20426;-84
2022/12/05 00:48:33;;;;;;;15.63;8.23;;;3.40;97.30;;;;;;5025876;28;20451;-86
2022/12/05 00:51:05;;;;;;;29.97;13.30;;;3.40;97.30;;;;;;5023830;28;20434;-83
2022/12/05 00:53:31;;;;;;;18.37;12.57;;;3.40;97.30;;;;;;5025698;28;20809;-86
2022/12/05 00:56:00;;;;;;;23.33;12.90;;;3.40;97.30;;;;;;4953202;28;20415;-87
2022/12/05 00:58:26;;;;;;;20.83;11.90;;;3.40;97.30;;;;;;5019875;28;20446;-87
2022/12/05 01:00:52;;;;;;;23.53;10.40;;;3.40;97.30;;;;;;4988477;28;20550;-87
2022/12/05 01:03:25;;;;;;;16.80;9.93;;;3.40;97.30;;;;;;5019919;28;20559;-87
2022/12/05 01:05:51;;;;;;;14.60;7.87;;;3.40;97.30;;;;;;5025565;28;20192;-88
2022/12/05 01:08:16;;;;;;;14.93;6.67;;;3.40;97.30;;;;;;5031184;28;20465;-87
2022/12/05 01:10:51;;;;;;;25.77;14.43;;;3.40;97.30;;;;;;5016890;28;20275;-87
2022/12/05 01:13:21;;;;;;;26.70;14.73;;;3.40;97.30;;;;;;5004726;28;20178;-86
2022/12/05 01:15:50;;;;;;;21.93;12.03;;;3.40;97.30;;;;;;5020844;28;20422;-87
2022/12/05 01:18:22;;;;;;;23.80;12.80;;;3.40;97.30;;;;;;5019939;28;20793;-86
2022/12/05 01:20:48;;;;;;;26.63;14.03;;;3.40;97.30;;;;;;4940034;28;20467;-87
2022/12/05 01:23:14;;;;;;;19.03;11.23;;;3.40;97.30;;;;;;5008589;28;20805;-87
2022/12/05 01:25:41;;;;;;;37.53;10.27;;;3.40;97.30;;;;;;5015336;28;20419;-86
2022/12/05 01:28:08;;;;;;;45.37;12.43;;;3.40;97.30;;;;;;5019421;28;20438;-87
2022/12/05 01:30:40;;;;;;;15.20;10.27;;;3.50;97.30;;;;;;5018381;28;20442;-87
2022/12/05 01:33:07;;;;;;;12.57;8.23;;;3.50;97.30;;;;;;5019402;28;20431;-87
2022/12/05 01:35:37;;;;;;;46.53;9.80;;;3.50;97.30;;;;;;5019282;28;20419;-87
2022/12/05 01:38:03;;;;;;;29.73;14.40;;;3.50;97.30;;;;;;5019019;28;20466;-87
2022/12/05 01:40:29;;;;;;;8.20;6.57;;;3.60;97.30;;;;;;4952437;28;20976;-87
2022/12/05 01:42:55;;;;;;;19.53;11.53;;;3.60;97.30;;;;;;4927160;28;20188;-86
2022/12/05 01:45:36;;;;;;;19.33;9.67;;;3.60;97.30;;;;;;4931613;28;20415;-86
2022/12/05 01:48:08;;;;;;;14.73;9.43;;;3.60;97.30;;;;;;4990659;28;20693;-87
2022/12/05 01:50:34;;;;;;;13.57;6.47;;;3.60;97.30;;;;;;4987875;28;20433;-87
2022/12/05 01:53:01;;;;;;;16.23;7.20;;;3.60;97.30;;;;;;4941074;28;20430;-86
2022/12/05 01:55:26;;;;;;;16.37;11.33;;;3.70;97.30;;;;;;4936607;28;20431;-86
2022/12/05 01:57:52;;;;;;;13.27;9.23;;;3.60;97.30;;;;;;5015356;28;20434;-86
2022/12/05 02:00:19;;;;;;;18.07;9.40;;;3.60;97.30;;;;;;4965956;28;20215;-87
2022/12/05 02:02:52;;;;;;;11.63;7.87;;;3.60;97.30;;;;;;4990688;28;20183;-87
2022/12/05 02:05:26;;;;;;;37.77;16.63;;;3.60;97.30;;;;;;4937696;28;20454;-87
2022/12/05 02:07:52;;;;;;;15.40;8.50;;;3.70;97.30;;;;;;4941574;28;20448;-87
2022/12/05 02:10:18;;;;;;;14.70;10.07;;;3.60;97.30;;;;;;4951212;29;20430;-86
2022/12/05 02:12:44;;;;;;;21.70;12.00;;;3.70;97.30;;;;;;4935185;28;20194;-86
2022/12/05 02:15:39;;;;;;;20.63;8.90;;;3.70;97.30;;;;;;4940611;28;20492;-86
2022/12/05 02:18:16;;;;;;;26.10;6.90;;;3.60;97.30;;;;;;5011329;28;20450;-86
2022/12/05 02:21:20;;;;;;;27.63;11.47;;;3.70;97.30;;;;;;4935498;29;21014;-86
2022/12/05 02:24:06;;;;;;;20.80;9.03;;;3.70;97.30;;;;;;4942857;28;20427;-86
2022/12/05 02:26:40;;;;;;;17.73;12.23;;;3.70;97.30;;;;;;4956367;28;20406;-87
2022/12/05 02:29:34;;;;;;;14.53;9.93;;;3.60;97.30;;;;;;4959322;28;20446;-86
2022/12/05 02:32:35;;;;;;;14.80;9.37;;;3.70;97.30;;;;;;4951899;28;20483;-86
2022/12/05 02:35:28;;;;;;;16.37;6.67;;;3.70;97.30;;;;;;4961012;28;20456;-87
2022/12/05 02:38:01;;;;;;;6.27;5.93;;;3.70;97.30;;;;;;5009878;28;20426;-86
2022/12/05 02:40:46;;;;;;;35.67;10.67;;;3.60;97.30;;;;;;4979217;28;20476;-85
2022/12/05 02:43:39;;;;;;;11.70;5.53;;;3.60;97.30;;;;;;4935050;28;21104;-87
2022/12/05 02:46:11;;;;;;;15.90;7.77;;;3.60;97.30;;;;;;4946313;28;20529;-86
2022/12/05 02:48:39;;;;;;;30.07;10.07;;;3.60;97.30;;;;;;4942934;28;20443;-86
2022/12/05 02:51:08;;;;;;;29.10;9.60;;;3.70;97.30;;;;;;5032875;28;20975;-89
2022/12/05 02:53:35;;;;;;;12.90;6.50;;;3.70;97.30;;;;;;5016770;28;20418;-86
2022/12/05 02:56:02;;;;;;;20.30;10.47;;;3.80;97.30;;;;;;5034347;28;20778;-83
2022/12/05 02:58:33;;;;;;;11.80;7.87;;;3.80;97.30;;;;;;4972551;28;20447;-85
2022/12/05 03:00:59;;;;;;;12.37;8.70;;;3.80;97.30;;;;;;5005726;28;21007;-82
2022/12/05 03:03:26;;;;;;;11.63;8.13;;;3.80;97.30;;;;;;4960274;28;20448;-86
2022/12/05 03:06:04;;;;;;;10.93;6.93;;;3.80;97.30;;;;;;4937873;28;20515;-83
2022/12/05 03:08:41;;;;;;;11.67;8.73;;;3.80;97.30;;;;;;4963383;28;20195;-82
2022/12/05 03:11:07;;;;;;;15.43;9.47;;;3.80;97.30;;;;;;5054557;28;20426;-81
2022/12/05 03:13:50;;;;;;;16.50;6.53;;;3.80;97.30;;;;;;4957138;28;20575;-84
2022/12/05 03:16:41;;;;;;;18.23;8.57;;;3.80;97.30;;;;;;4952806;28;20191;-81
2022/12/05 03:19:19;;;;;;;9.03;7.40;;;3.80;97.30;;;;;;4936569;29;20839;-86
2022/12/05 03:22:00;;;;;;;25.60;7.67;;;3.80;97.30;;;;;;4983462;28;20806;-86
2022/12/05 03:24:26;;;;;;;11.20;6.57;;;3.80;97.30;;;;;;4938459;28;20941;-82
2022/12/05 03:27:18;;;;;;;14.33;8.50;;;3.80;97.30;;;;;;5019823;28;20791;-81
2022/12/05 03:30:10;;;;;;;8.30;7.77;;;3.80;97.30;;;;;;4945943;28;20461;-85
2022/12/05 03:32:48;;;;;;;15.50;7.97;;;3.80;97.30;;;;;;4925998;28;20419;-84
2022/12/05 03:35:29;;;;;;;10.10;7.07;;;3.90;97.30;;;;;;5002257;28;20423;-86
2022/12/05 03:38:35;;;;;;;16.37;9.53;;;3.90;97.30;;;;;;4940264;28;20855;-82
2022/12/05 03:41:29;;;;;;;18.00;7.20;;;3.90;97.30;;;;;;4959181;28;20486;-81
2022/12/05 03:44:06;;;;;;;11.63;8.07;;;3.90;97.30;;;;;;4936887;29;20568;-84
2022/12/05 03:46:40;;;;;;;14.90;8.17;;;3.90;97.30;;;;;;4945574;28;20422;-84
2022/12/05 03:49:36;;;;;;;10.70;6.30;;;3.90;97.30;;;;;;4937400;29;20483;-84
2022/12/05 03:52:33;;;;;;;11.03;6.37;;;3.90;97.30;;;;;;4946936;28;20462;-81
2022/12/05 03:55:03;;;;;;;13.03;7.80;;;3.90;97.30;;;;;;5001983;28;21214;-82
2022/12/05 03:57:51;;;;;;;14.20;10.60;;;3.90;97.30;;;;;;4936422;28;20423;-84
2022/12/05 04:00:22;;;;;;;16.50;8.83;;;3.90;97.30;;;;;;4951479;28;21047;-86
2022/12/05 04:02:54;;;;;;;13.07;10.07;;;4.00;97.30;;;;;;4971949;28;20427;-85
2022/12/05 04:05:27;;;;;;;16.20;8.13;;;4.00;97.30;;;;;;4989383;28;20947;-85
2022/12/05 04:08:00;;;;;;;9.30;8.80;;;3.90;97.30;;;;;;4952829;28;20446;-86
2022/12/05 04:10:31;;;;;;;13.57;6.93;;;4.00;97.30;;;;;;4952201;28;20435;-86
2022/12/05 04:13:16;;;;;;;12.63;6.83;;;4.00;97.30;;;;;;4933901;28;20449;-84
2022/12/05 04:18:37;;;;;;;14.60;8.53;;;4.00;97.30;;;;;;4986476;28;20441;-85
2022/12/05 04:25:31;;;;;;;7.50;6.27;;;4.10;97.30;;;;;;4950877;28;20468;-84
2022/12/05 04:26:41;;;;;;;10.33;7.03;;;4.10;97.30;;;;;;4951037;28;20442;-86
2022/12/05 04:29:15;;;;;;;11.77;8.07;;;4.10;97.30;;;;;;4933419;29;20482;-86
2022/12/05 04:31:42;;;;;;;35.37;14.77;;;4.10;97.30;;;;;;4963752;28;20484;-85
2022/12/05 04:34:13;;;;;;;41.83;9.93;;;4.10;97.30;;;;;;5011411;28;20454;-86
2022/12/05 04:36:42;;;;;;;13.33;8.53;;;4.10;97.30;;;;;;4987252;28;20958;-85
2022/12/05 04:39:20;;;;;;;16.67;7.10;;;4.10;97.30;;;;;;4990174;28;20554;-85
2022/12/05 04:42:16;;;;;;;13.43;8.40;;;4.00;97.30;;;;;;5033451;28;20484;-85
2022/12/05 04:44:51;;;;;;;30.13;10.00;;;4.00;97.30;;;;;;5036215;28;20835;-85
2022/12/05 04:47:20;;;;;;;14.70;9.67;;;4.00;97.30;;;;;;5033373;28;20437;-85
2022/12/05 04:49:46;;;;;;;15.07;6.27;;;4.00;97.30;;;;;;5034193;28;20446;-86
2022/12/05 04:52:13;;;;;;;15.10;6.40;;;4.00;97.30;;;;;;5033784;28;20419;-85
2022/12/05 04:55:01;;;;;;;21.93;8.80;;;4.00;97.30;;;;;;5034029;28;20538;-85
2022/12/05 04:57:35;;;;;;;14.53;7.70;;;4.00;97.30;;;;;;5049603;28;20503;-86
2022/12/05 05:00:01;;;;;;;16.80;9.10;;;4.00;97.30;;;;;;5033695;28;20553;-85
2022/12/05 05:02:46;;;;;;;6.40;5.70;;;4.00;97.30;;;;;;5033409;28;21008;-86
2022/12/05 05:05:15;;;;;;;8.80;4.93;;;4.00;97.30;;;;;;5033878;28;20673;-86
2022/12/05 05:08:00;;;;;;;12.63;10.47;;;4.00;97.30;;;;;;5033547;28;20450;-85
2022/12/05 05:10:36;;;;;;;13.77;10.23;;;4.10;97.30;;;;;;5034813;28;20422;-86
2022/12/05 05:13:02;;;;;;;9.80;7.17;;;4.10;97.30;;;;;;5033789;28;20430;-85
2022/12/05 05:15:27;;;;;;;14.10;9.13;;;4.10;97.30;;;;;;5033302;28;20419;-85
2022/12/05 05:17:53;;;;;;;18.47;9.50;;;4.10;97.30;;;;;;5033242;28;20215;-84
2022/12/05 05:20:25;;;;;;;14.67;8.77;;;4.10;97.30;;;;;;5035032;28;20200;-85
2022/12/05 05:22:53;;;;;;;14.23;7.47;;;4.20;97.30;;;;;;5050285;28;20180;-85
2022/12/05 05:25:18;;;;;;;8.93;5.60;;;4.20;97.30;;;;;;5033526;28;20425;-85
2022/12/05 05:27:49;;;;;;;14.40;8.20;;;4.10;97.30;;;;;;5033282;28;20809;-85
2022/12/05 05:30:14;;;;;;;12.07;7.53;;;4.10;97.30;;;;;;5033348;28;20188;-86
2022/12/05 05:32:40;;;;;;;21.27;6.70;;;4.20;97.30;;;;;;5032820;28;20510;-84
2022/12/05 05:35:06;;;;;;;9.43;6.07;;;4.20;97.30;;;;;;5033228;28;20208;-85
2022/12/05 05:37:31;;;;;;;22.07;9.07;;;4.20;97.30;;;;;;5033255;28;20205;-85
2022/12/05 05:39:57;;;;;;;11.57;9.33;;;4.20;97.30;;;;;;5032637;28;20479;-85
2022/12/05 05:42:22;;;;;;;17.80;9.80;;;4.20;97.30;;;;;;5033312;28;20180;-85
2022/12/05 05:44:48;;;;;;;10.03;8.40;;;4.10;97.30;;;;;;5033632;28;20650;-85
2022/12/05 05:47:13;;;;;;;13.23;6.53;;;4.10;97.30;;;;;;5033098;28;20184;-85
2022/12/05 05:49:39;;;;;;;10.07;7.50;;;4.10;97.30;;;;;;5032027;28;20205;-85
2022/12/05 05:52:04;;;;;;;17.13;8.57;;;4.20;97.30;;;;;;5033154;28;20181;-87
2022/12/05 05:54:30;;;;;;;15.60;11.10;;;4.10;97.30;;;;;;5032590;28;20185;-85
2022/12/05 05:56:55;;;;;;;11.93;8.73;;;4.20;97.30;;;;;;5030668;28;20191;-85
2022/12/05 05:59:20;;;;;;;15.37;9.47;;;4.20;97.30;;;;;;5033795;28;20204;-88
2022/12/05 06:01:48;;;;;;;15.87;7.37;;;4.30;97.30;;;;;;5032072;28;20240;-85
2022/12/05 06:04:13;;;;;;;9.90;6.90;;;4.30;97.30;;;;;;5032946;28;20283;-85
2022/12/05 06:06:39;;;;;;;14.83;7.97;;;4.30;97.30;;;;;;5032445;28;20881;-85
2022/12/05 06:09:06;;;;;;;12.43;7.33;;;4.30;97.30;;;;;;5032626;28;20800;-85
2022/12/05 06:11:31;;;;;;;32.53;9.50;;;4.40;97.30;;;;;;5032930;28;20506;-85
2022/12/05 06:14:00;;;;;;;18.80;8.93;;;4.40;97.30;;;;;;5032301;28;20565;-85
2022/12/05 06:16:26;;;;;;;7.60;5.93;;;4.40;97.30;;;;;;5032639;28;20242;-84
2022/12/05 06:18:52;;;;;;;16.83;7.70;;;4.40;97.30;;;;;;5032080;28;20451;-86
2022/12/05 06:21:18;;;;;;;8.07;5.97;;;4.40;97.30;;;;;;5031762;28;20319;-85
2022/12/05 06:23:44;;;;;;;11.53;5.40;;;4.40;97.30;;;;;;5032153;28;20191;-85
2022/12/05 06:26:12;;;;;;;11.30;7.00;;;4.40;97.30;;;;;;5032666;28;20399;-85
2022/12/05 06:28:38;;;;;;;14.70;6.60;;;4.30;97.30;;;;;;5032226;28;20204;-84
2022/12/05 06:31:25;;;;;;;15.47;6.97;;;4.30;97.30;;;;;;5033558;28;20422;-85
2022/12/05 06:33:51;;;;;;;15.37;9.20;;;4.30;97.30;;;;;;5032501;28;20431;-87
2022/12/05 06:36:20;;;;;;;13.63;8.50;;;4.30;97.30;;;;;;5032073;28;20510;-85
2022/12/05 06:38:45;;;;;;;16.40;7.30;;;4.30;97.30;;;;;;5025363;28;20859;-84
2022/12/05 06:41:14;;;;;;;15.37;9.07;;;4.30;97.30;;;;;;5037037;28;20486;-86
2022/12/05 06:43:40;;;;;;;8.83;8.07;;;4.30;97.30;;;;;;5051981;28;20188;-90
2022/12/05 06:46:07;;;;;;;9.83;7.80;;;4.30;97.30;;;;;;5049507;28;20498;-87
2022/12/05 06:48:33;;;;;;;9.90;6.63;;;4.30;97.30;;;;;;4991840;22;20284;-89
2022/12/05 06:50:59;;;;;;;11.30;7.33;;;4.20;97.30;;;;;;4950124;28;20427;-90
2022/12/05 06:53:25;;;;;;;20.07;8.93;;;4.20;97.30;;;;;;4954494;28;20437;-89
2022/12/05 06:55:57;;;;;;;8.00;5.37;;;4.10;97.30;;;;;;5005397;28;20188;-89
2022/12/05 06:58:23;;;;;;;19.97;9.20;;;4.10;97.30;;;;;;4939164;29;20208;-90
2022/12/05 07:03:33;;;;;;;9.63;6.37;;;4.00;97.30;;;;;;4951966;28;20267;-90
2022/12/05 07:06:04;;;;;;;12.07;7.53;;;4.00;97.30;;;;;;4950143;28;21086;-91
2022/12/05 07:08:30;;;;;;;12.60;7.10;;;4.00;97.30;;;;;;4953123;28;20286;-91
2022/12/05 07:10:55;;;;;;;8.77;6.43;;;4.00;97.30;;;;;;4950295;28;20545;-91
2022/12/05 07:13:21;;;;;;;12.53;8.67;;;4.00;97.30;;;;;;5011482;28;20277;-91
2022/12/05 07:15:48;;;;;;;16.70;8.53;;;4.00;97.30;;;;;;4944008;28;20211;-92
2022/12/05 07:18:15;;;;;;;9.73;6.10;;;4.00;97.30;;;;;;4949739;28;20298;-90
2022/12/05 07:20:41;;;;;;;30.63;9.70;;;4.00;97.30;;;;;;4951618;28;20493;-90
2022/12/05 07:23:07;;;;;;;11.50;5.93;;;4.00;97.30;;;;;;4972086;28;20434;-90
2022/12/05 07:25:33;;;;;;;14.70;6.70;;;4.00;97.30;;;;;;4949762;29;20433;-90
2022/12/05 07:27:58;;;;;;;8.00;7.00;;;4.00;97.30;;;;;;4950683;28;20207;-90
2022/12/05 07:30:24;;;;;;;14.60;11.33;;;4.00;97.30;;;;;;4949938;29;20685;-89
2022/12/05 07:32:49;;;;;;;17.27;8.03;;;4.00;97.30;;;;;;4950238;29;20217;-90
2022/12/05 07:35:15;;;;;;;12.67;8.73;;;4.00;97.30;;;;;;4951943;28;20199;-87
2022/12/05 07:37:40;;;;;;;12.53;7.13;;;4.00;97.30;;;;;;4948939;29;20206;-89
2022/12/05 07:40:07;;;;;;;24.40;9.10;;;4.00;97.30;;;;;;4949531;28;20211;-88
2022/12/05 07:42:32;;;;;;;13.13;8.50;;;4.00;97.30;;;;;;4972999;28;20187;-84
2022/12/05 07:44:58;;;;;;;11.60;7.70;;;4.00;97.30;;;;;;4949759;29;20426;-86
2022/12/05 07:47:23;;;;;;;15.60;7.30;;;4.00;97.30;;;;;;4949448;28;20654;-86
2022/12/05 07:49:49;;;;;;;11.67;7.03;;;4.00;97.30;;;;;;4995482;28;20674;-86
2022/12/05 07:52:14;;;;;;;35.80;11.97;;;4.00;97.30;;;;;;4949329;28;20219;-86
2022/12/05 07:54:40;;;;;;;13.33;7.93;;;4.00;97.30;;;;;;4957453;28;20196;-86
2022/12/05 07:57:05;;;;;;;20.77;7.73;;;4.00;97.30;;;;;;4987710;28;20262;-87
2022/12/05 07:59:31;;;;;;;13.37;9.33;;;4.00;97.30;;;;;;4949119;28;20210;-86
2022/12/05 08:01:56;;;;;;;20.10;13.57;;;4.00;97.30;;;;;;4950787;28;20345;-87
2022/12/05 08:04:22;;;;;;;9.43;8.17;;;4.00;97.30;;;;;;5035894;28;20275;-87
2022/12/05 08:06:48;;;;;;;11.27;8.23;;;4.00;97.30;;;;;;4987987;28;20257;-87
2022/12/05 08:09:13;;;;;;;10.83;9.57;;;4.10;97.30;;;;;;4953018;28;20186;-86
2022/12/05 08:11:39;;;;;;;20.00;8.50;;;4.10;97.30;;;;;;4953681;28;20286;-87
2022/12/05 08:14:05;;;;;;;29.07;8.43;;;4.10;97.30;;;;;;5019164;28;20199;-87
2022/12/05 08:16:31;;;;;;;15.87;8.00;;;4.10;97.30;;;;;;4957024;28;20260;-87
2022/12/05 08:19:05;;;;;;;6.73;5.57;;;4.10;97.30;;;;;;5015583;28;20477;-86
2022/12/05 08:21:32;;;;;;;20.77;9.03;;;4.20;97.30;;;;;;4951763;28;20845;-86
2022/12/05 08:23:58;;;;;;;10.67;9.03;;;4.20;97.30;;;;;;4954100;28;20427;-87
2022/12/05 08:26:29;;;;;;;7.73;7.10;;;4.20;97.30;;;;;;4954319;28;20462;-86
2022/12/05 08:28:58;;;;;;;7.30;4.87;;;4.20;97.30;;;;;;4941028;28;20235;-86
2022/12/05 08:31:26;;;;;;;12.70;6.83;;;4.20;97.30;;;;;;5019309;28;20512;-86
2022/12/05 08:33:52;;;;;;;7.53;6.07;;;4.20;97.30;;;;;;4953270;28;20429;-86
2022/12/05 08:36:18;;;;;;;10.33;4.87;;;4.30;97.30;;;;;;4958344;28;20423;-87
2022/12/05 08:38:44;;;;;;;15.73;7.50;;;4.30;97.30;;;;;;4998839;28;20268;-86
2022/12/05 08:41:15;;;;;;;12.60;6.10;;;4.30;97.30;;;;;;4960755;28;20553;-86
2022/12/05 08:43:42;;;;;;;22.53;8.70;;;4.20;97.30;;;;;;5007029;28;20765;-87
2022/12/05 08:46:08;;;;;;;18.67;7.70;;;4.20;97.30;;;;;;4954384;28;20925;-87
2022/12/05 08:48:34;;;;;;;13.70;7.00;;;4.20;97.30;;;;;;4951357;28;20478;-87
2022/12/05 08:51:05;;;;;;;13.13;5.63;;;4.20;97.30;;;;;;4964208;28;20457;-88
2022/12/05 08:53:31;;;;;;;24.33;8.50;;;4.10;97.30;;;;;;5005900;28;20418;-87
2022/12/05 08:56:01;;;;;;;12.40;7.10;;;4.10;97.30;;;;;;5018733;28;20439;-87
2022/12/05 08:58:27;;;;;;;18.93;10.90;;;4.10;97.30;;;;;;4998958;28;20592;-86
2022/12/05 09:00:52;;;;;;;19.77;7.37;;;4.10;97.30;;;;;;4969805;28;20597;-88
2022/12/05 09:03:18;;;;;;;7.40;4.23;;;4.10;97.30;;;;;;4999056;28;20509;-87
2022/12/05 09:05:43;;;;;;;11.43;7.27;;;4.10;97.30;;;;;;4971169;28;20190;-87
2022/12/05 09:08:09;;;;;;;11.47;7.77;;;4.10;97.30;;;;;;4991007;28;20222;-87
2022/12/05 09:10:36;;;;;;;15.37;8.87;;;4.10;97.30;;;;;;5016238;28;20594;-87
2022/12/05 09:13:02;;;;;;;24.73;7.20;;;4.10;97.30;;;;;;4999144;28;20180;-86
2022/12/05 09:15:28;;;;;;;12.70;5.00;;;4.10;97.30;;;;;;5033187;28;20418;-87
2022/12/05 09:17:53;;;;;;;6.57;4.07;;;4.10;97.30;;;;;;4998026;28;20211;-87
2022/12/05 09:20:19;;;;;;;7.73;4.63;;;4.00;97.30;;;;;;4970377;28;20199;-86
2022/12/05 09:22:44;;;;;;;13.63;6.57;;;3.90;97.30;;;;;;4952147;28;20180;-86
2022/12/05 09:25:10;;;;;;;17.90;10.50;;;3.90;97.30;;;;;;4953381;28;20259;-87
2022/12/05 09:27:35;;;;;;;7.00;6.60;;;3.90;97.30;;;;;;4951271;28;20207;-86
2022/12/05 09:30:01;;;;;;;10.57;7.70;;;3.90;97.30;;;;;;4967542;28;20179;-87
2022/12/05 09:32:26;;;;;;;12.33;7.23;;;3.90;97.30;;;;;;5049363;28;20175;-87
2022/12/05 09:34:53;;;;;;;8.50;6.67;;;3.90;97.30;;;;;;4967785;28;20175;-87
2022/12/05 09:37:19;;;;;;;6.83;3.80;;;3.80;97.30;;;;;;4956271;28;20227;-86
2022/12/05 09:39:44;;;;;;;7.23;5.23;;;3.90;97.30;;;;;;4966568;28;20449;-86
2022/12/05 09:42:34;;;;;;;12.57;6.77;;;3.80;97.30;;;;;;5001968;28;20508;-87
2022/12/05 09:45:41;;;;;;;3.93;3.77;;;3.90;97.30;;;;;;4983362;28;20650;-87
2022/12/05 09:48:13;;;;;;;3.93;3.73;;;3.90;97.30;;;;;;4989542;28;20456;-87
2022/12/05 09:50:47;;;;;;;9.27;7.37;;;3.90;97.30;;;;;;4990771;28;20511;-87
2022/12/05 09:53:21;;;;;;;7.20;5.17;;;3.90;97.30;;;;;;4981115;28;20430;-87
2022/12/05 09:56:01;;;;;;;16.73;5.50;;;3.90;97.30;;;;;;4977922;28;20521;-86
2022/12/05 09:58:29;;;;;;;15.60;7.33;;;3.80;97.30;;;;;;4998626;28;20438;-88
2022/12/05 10:01:30;;;;;;;5.73;4.20;;;3.70;97.30;;;;;;5049187;28;20450;-86
2022/12/05 10:04:25;;;;;;;6.20;5.37;;;3.70;97.30;;;;;;4968576;28;20440;-86
2022/12/05 10:07:25;;;;;;;7.00;4.80;;;3.70;97.30;;;;;;5051463;28;20422;-89
2022/12/05 10:09:53;;;;;;;10.27;4.40;;;3.70;97.30;;;;;;4941315;28;20465;-87
2022/12/05 10:12:30;;;;;;;9.30;7.23;;;3.70;97.30;;;;;;4970634;28;20402;-87
2022/12/05 10:15:27;;;;;;;8.43;5.37;;;3.70;97.30;;;;;;5050361;28;20500;-86
2022/12/05 10:18:17;;;;;;;14.00;6.53;;;3.60;97.30;;;;;;4924641;28;20471;-87
2022/12/05 10:20:51;;;;;;;16.10;5.60;;;3.60;97.30;;;;;;4984704;28;20572;-87
2022/12/05 10:23:22;;;;;;;18.13;6.57;;;3.60;97.30;;;;;;4982178;28;20411;-86
2022/12/05 10:25:54;;;;;;;10.73;4.43;;;3.50;97.30;;;;;;4982726;28;20430;-86
2022/12/05 10:28:38;;;;;;;7.63;7.23;;;3.50;97.30;;;;;;5032821;28;20473;-87
2022/12/05 10:31:08;;;;;;;11.83;4.80;;;3.50;97.30;;;;;;4953848;28;20434;-87
2022/12/05 10:33:42;;;;;;;5.23;4.77;;;3.50;97.30;;;;;;4960922;28;21030;-87
2022/12/05 10:36:12;;;;;;;15.23;4.73;;;3.50;97.30;;;;;;4956202;28;20438;-87
2022/12/05 10:38:39;;;;;;;4.50;4.10;;;3.40;97.30;;;;;;5050048;28;20442;-86
2022/12/05 10:41:08;;;;;;;4.30;4.03;;;3.40;97.30;;;;;;4979850;28;20585;-87
2022/12/05 10:43:36;;;;;;;9.40;4.93;;;3.40;97.30;;;;;;5007595;28;20430;-86
2022/12/05 10:46:03;;;;;;;7.33;4.53;;;3.40;97.30;;;;;;4962977;28;20488;-86
2022/12/05 10:48:33;;;;;;;3.73;3.27;;;3.40;97.30;;;;;;4952853;28;20483;-87
2022/12/05 10:50:59;;;;;;;6.43;3.83;;;3.40;97.30;;;;;;4963010;28;20431;-87
2022/12/05 10:53:42;;;;;;;8.80;5.53;;;3.40;97.30;;;;;;4999806;28;20431;-87
2022/12/05 10:56:36;;;;;;;10.43;4.97;;;3.40;97.30;;;;;;5017231;28;20454;-86
2022/12/05 10:59:02;;;;;;;8.70;4.93;;;3.40;97.30;;;;;;5017478;28;20441;-87
2022/12/05 11:01:28;;;;;;;12.37;5.97;;;3.40;97.30;;;;;;4949664;28;20549;-86
2022/12/05 11:03:59;;;;;;;14.37;5.17;;;3.30;97.30;;;;;;5021498;28;20513;-87
2022/12/05 11:06:30;;;;;;;3.23;2.70;;;3.30;97.30;;;;;;5008063;28;20612;-86
2022/12/05 11:09:01;;;;;;;7.33;5.90;;;3.30;97.30;;;;;;4943043;28;20538;-87
2022/12/05 11:11:32;;;;;;;3.47;2.17;;;3.40;97.30;;;;;;4940898;28;20439;-87
2022/12/05 11:14:06;;;;;;;4.37;4.00;;;3.40;97.30;;;;;;4953262;28;20419;-86
2022/12/05 11:16:37;;;;;;;12.40;7.53;;;3.40;97.30;;;;;;4944197;28;20429;-87
2022/12/05 11:19:21;;;;;;;12.20;6.10;;;3.40;97.30;;;;;;4962817;28;20442;-87
2022/12/05 11:21:48;;;;;;;4.50;3.30;;;3.40;97.30;;;;;;4973774;28;21214;-87
2022/12/05 11:24:40;;;;;;;7.23;4.90;;;3.40;97.30;;;;;;4988832;28;20423;-87
2022/12/05 11:27:14;;;;;;;5.03;2.60;;;3.30;97.30;;;;;;5017328;28;20443;-87
2022/12/05 11:29:41;;;;;;;13.23;5.70;;;3.30;97.30;;;;;;4949148;28;20460;-88
2022/12/05 11:32:18;;;;;;;13.00;4.83;;;3.30;97.30;;;;;;5045748;28;20417;-88
2022/12/05 11:35:11;;;;;;;4.60;3.50;;;3.30;97.30;;;;;;4976427;28;20433;-87
2022/12/05 11:38:02;;;;;;;6.83;6.10;;;3.30;97.30;;;;;;4999835;28;20476;-86
2022/12/05 11:40:31;;;;;;;5.43;3.63;;;3.30;97.30;;;;;;4952573;28;20466;-86
2022/12/05 11:43:24;;;;;;;5.00;3.50;;;3.40;97.30;;;;;;5023899;28;20800;-87
2022/12/05 11:46:23;;;;;;;5.90;4.10;;;3.30;97.30;;;;;;5041531;28;20411;-87
2022/12/05 11:49:02;;;;;;;12.47;5.73;;;3.30;97.30;;;;;;4938200;28;20466;-86
2022/12/05 11:52:06;;;;;;;8.87;4.77;;;3.30;97.30;;;;;;5014938;28;20422;-86
2022/12/05 11:54:40;;;;;;;2.80;2.60;;;3.30;97.30;;;;;;5013690;28;20415;-87
2022/12/05 11:57:32;;;;;;;12.20;3.17;;;3.40;97.30;;;;;;4950309;28;20446;-86
2022/12/05 12:00:14;;;;;;;4.70;3.40;;;3.40;97.30;;;;;;4946686;28;20417;-86
2022/12/05 12:03:12;;;;;;;6.27;4.87;;;3.40;97.30;;;;;;5012237;28;20471;-87
2022/12/05 12:06:04;;;;;;;4.90;3.67;;;3.40;97.30;;;;;;4907140;29;20873;-87
2022/12/05 12:08:42;;;;;;;10.37;5.40;;;3.40;97.30;;;;;;4946288;28;20447;-87
2022/12/05 12:11:15;;;;;;;8.23;3.83;;;3.40;97.30;;;;;;4962450;28;20427;-87
2022/12/05 12:14:03;;;;;;;6.83;4.43;;;3.40;97.30;;;;;;4997300;28;20419;-87
2022/12/05 12:16:55;;;;;;;4.13;3.57;;;3.40;97.30;;;;;;4949726;28;20431;-88
2022/12/05 12:19:27;;;;;;;9.17;6.50;;;3.40;97.30;;;;;;5017478;28;20429;-87
2022/12/05 12:22:34;;;;;;;12.23;4.40;;;3.40;97.30;;;;;;4948305;28;20462;-87
2022/12/05 12:25:11;;;;;;;3.77;3.43;;;3.50;97.30;;;;;;4996832;28;20438;-86
2022/12/05 12:27:46;;;;;;;13.03;5.43;;;3.40;97.30;;;;;;4958330;28;20442;-87
2022/12/05 12:30:16;;;;;;;7.17;6.47;;;3.50;97.30;;;;;;4949764;28;20414;-86
2022/12/05 12:32:51;;;;;;;6.03;4.30;;;3.40;97.30;;;;;;4982305;28;20414;-87
2022/12/05 12:35:16;;;;;;;9.53;4.37;;;3.40;97.30;;;;;;4980722;28;21043;-89
2022/12/05 12:38:11;;;;;;;7.00;6.03;;;3.40;97.30;;;;;;4974060;28;20477;-86
2022/12/05 12:41:08;;;;;;;5.53;5.23;;;3.40;97.30;;;;;;4954599;28;20229;-87
2022/12/05 12:44:06;;;;;;;7.63;5.23;;;3.30;97.30;;;;;;4965282;28;20553;-88
2022/12/05 12:46:56;;;;;;;4.83;4.40;;;3.30;97.30;;;;;;5022296;28;20433;-87
2022/12/05 12:49:38;;;;;;;19.10;5.00;;;3.30;97.30;;;;;;5042702;22;20909;-88
2022/12/05 12:52:17;;;;;;;8.13;5.57;;;3.30;97.30;;;;;;5051838;28;20428;-88
2022/12/05 12:54:49;;;;;;;8.30;4.73;;;3.40;97.30;;;;;;5039862;28;20441;-87
2022/12/05 12:57:23;;;;;;;9.60;5.40;;;3.30;97.30;;;;;;5052652;28;20422;-89
2022/12/05 13:00:03;;;;;;;2.90;2.70;;;3.30;97.30;;;;;;5038427;28;20442;-88
2022/12/05 13:02:38;;;;;;;9.73;5.70;;;3.30;97.30;;;;;;5036196;28;20426;-88
2022/12/05 13:05:21;;;;;;;5.77;3.83;;;3.30;97.30;;;;;;5036253;28;20461;-91
2022/12/05 13:08:25;;;;;;;20.63;3.50;;;3.30;97.30;;;;;;5046520;28;20406;-90
2022/12/05 13:10:58;;;;;;;3.10;2.93;;;3.30;97.30;;;;;;5005943;28;20467;-91
2022/12/05 13:13:44;;;;;;;4.77;4.47;;;3.30;97.30;;;;;;5023377;28;20418;-90
2022/12/05 13:16:33;;;;;;;5.83;4.60;;;3.30;97.30;;;;;;5045021;28;20932;-91
2022/12/05 13:19:36;;;;;;;9.50;3.60;;;3.30;97.30;;;;;;5024024;28;20454;-90
2022/12/05 13:22:17;;;;;;;7.13;5.90;;;3.20;97.30;;;;;;5023227;28;20738;-91
2022/12/05 13:24:46;;;;;;;3.00;2.73;;;3.20;97.30;;;;;;5026171;28;20410;-90
2022/12/05 13:27:27;;;;;;;3.43;3.23;;;3.20;97.30;;;;;;5037114;28;20414;-91